KAND/AND METAR and TAF weather

Enter ICAO airport designator
Station Type Date Time Source
KAND METAR 2020/09/19 17:56 UTC NOAA

KAND 191756Z AUTO 04010KT 10SM CLR 22/11 A3022 RMK AO2 SLP228 T02170111 10222 20183 58005


Station Type Date Time Source
KAND Decoded METAR 2020/09/19 17:56 UTC NOAA

ANDERSON COUNTY AIRPORT, SC, United States (KAND) 34-30N 82-43W 239M
Sep 19, 2020 - 01:56 PM EDT / 2020.09.19 1756 UTC
Wind: from the NE (040 degrees) at 12 MPH (10 KT):0
Visibility: 10 mile(s):0
Sky conditions: clear
Temperature: 71.1 F (21.7 C)
Dew Point: 52.0 F (11.1 C)
Relative Humidity: 50%
Pressure (altimeter): 30.22 in. Hg (1023 hPa)
Pressure tendency: 0.01 inches (0.5 hPa) lower than three hours ago
ob: KAND 191756Z AUTO 04010KT 10SM CLR 22/11 A3022 RMK AO2 SLP228 T02170111 10222 20183 58005
cycle: 18

Station Type Date Time Source
KAND TAF 2020/09/19 18:42 UTC NOAA

TAF KAND 191739Z 1918/2018 06010KT P6SM BKN220
FM201300 05012G18KT P6SM FEW250

Example: see airport list